Time,TemperatureF,DewpointF,PressureIn,WindDirection,WindDirectionDegrees,WindSpeedMPH,WindSpeedGustMPH,Humidity,HourlyPrecipIn,Conditions,Clouds,dailyrainin,SoftwareType,DateUTC
2013-07-27 00:02:00,54.6,52.0,30.08,NW,308,3.0,4.0,90,0.00,,,0.00,weatherlink.com 1.10,2013-07-27 05:02:00,
2013-07-27 00:31:00,54.1,51.0,30.07,NW,321,4.0,5.0,90,0.00,,,0.00,weatherlink.com 1.10,2013-07-27 05:31:00,
2013-07-27 01:02:00,53.1,51.0,30.07,NW,317,3.0,4.0,92,0.00,,,0.00,weatherlink.com 1.10,2013-07-27 06:02:00,
2013-07-27 01:32:00,51.9,50.0,30.07,WNW,300,1.0,2.0,93,0.00,,,0.00,weatherlink.com 1.10,2013-07-27 06:32:00,
2013-07-27 01:46:00,51.3,50.0,30.07,WNW,301,1.0,4.0,94,0.00,,,0.00,weatherlink.com 1.10,2013-07-27 06:46:00,
2013-07-27 02:02:00,50.9,50.0,30.07,NW,309,1.0,2.0,95,0.00,,,0.00,weatherlink.com 1.10,2013-07-27 07:02:00,
2013-07-27 02:17:00,50.3,49.0,30.07,WNW,300,2.0,2.0,95,0.00,,,0.00,weatherlink.com 1.10,2013-07-27 07:17:00,
2013-07-27 02:32:00,50.1,49.0,30.08,WNW,303,2.0,3.0,95,0.00,,,0.00,weatherlink.com 1.10,2013-07-27 07:32:00,
2013-07-27 02:47:00,49.8,49.0,30.07,WNW,287,2.0,3.0,95,0.00,,,0.00,weatherlink.com 1.10,2013-07-27 07:47:00,
2013-07-27 03:02:00,49.5,48.0,30.08,WNW,302,2.0,3.0,95,0.00,,,0.00,weatherlink.com 1.10,2013-07-27 08:02:00,
2013-07-27 03:17:00,49.2,48.0,30.07,WNW,300,2.0,3.0,95,0.00,,,0.00,weatherlink.com 1.10,2013-07-27 08:17:00,
2013-07-27 03:32:00,48.9,48.0,30.07,WNW,297,3.0,3.0,95,0.00,,,0.00,weatherlink.com 1.10,2013-07-27 08:32:00,
2013-07-27 03:47:00,49.0,48.0,30.07,NW,309,3.0,5.0,95,0.00,,,0.00,weatherlink.com 1.10,2013-07-27 08:47:00,
2013-07-27 04:02:00,49.6,48.0,30.07,NW,325,5.0,7.0,94,0.00,,,0.00,weatherlink.com 1.10,2013-07-27 09:02:00,
2013-07-27 04:17:00,49.7,48.0,30.08,NNW,333,5.0,8.0,94,0.00,,,0.00,weatherlink.com 1.10,2013-07-27 09:17:00,
2013-07-27 04:32:00,49.7,48.0,30.07,NW,317,4.0,8.0,94,0.00,,,0.00,weatherlink.com 1.10,2013-07-27 09:32:00,
2013-07-27 04:47:00,49.5,48.0,30.08,NW,311,4.0,7.0,94,0.00,,,0.00,weatherlink.com 1.10,2013-07-27 09:47:00,
2013-07-27 05:02:00,49.1,48.0,30.08,NW,325,3.0,7.0,94,0.00,,,0.00,weatherlink.com 1.10,2013-07-27 10:02:00,
2013-07-27 05:17:00,48.5,47.0,30.08,NW,316,5.0,6.0,94,0.00,,,0.00,weatherlink.com 1.10,2013-07-27 10:17:00,
2013-07-27 05:32:00,48.0,47.0,30.09,NW,326,5.0,6.0,95,0.00,,,0.00,weatherlink.com 1.10,2013-07-27 10:32:00,
2013-07-27 05:47:00,47.7,46.0,30.09,NW,325,5.0,7.0,95,0.00,,,0.00,weatherlink.com 1.10,2013-07-27 10:47:00,
2013-07-27 06:02:00,47.7,46.0,30.09,NNW,328,5.0,7.0,95,0.00,,,0.00,weatherlink.com 1.10,2013-07-27 11:02:00,
2013-07-27 06:18:00,47.6,46.0,30.09,NW,324,4.0,6.0,95,0.00,,,0.00,weatherlink.com 1.10,2013-07-27 11:18:00,
2013-07-27 06:33:00,48.0,46.0,30.09,NW,316,7.0,7.0,94,0.00,,,0.00,weatherlink.com 1.10,2013-07-27 11:33:00,
2013-07-27 06:48:00,48.7,47.0,30.09,NW,314,4.0,9.0,93,0.00,,,0.00,weatherlink.com 1.10,2013-07-27 11:48:00,
2013-07-27 07:03:00,48.8,47.0,30.09,NW,319,4.0,7.0,93,0.00,,,0.00,weatherlink.com 1.10,2013-07-27 12:03:00,
2013-07-27 07:18:00,48.5,47.0,30.09,NW,305,3.0,6.0,95,0.00,,,0.00,weatherlink.com 1.10,2013-07-27 12:18:00,
2013-07-27 07:33:00,49.3,48.0,30.10,NW,314,6.0,8.0,95,0.00,,,0.00,weatherlink.com 1.10,2013-07-27 12:33:00,
2013-07-27 07:48:00,50.0,48.0,30.10,NW,314,6.0,11.0,94,0.00,,,0.00,weatherlink.com 1.10,2013-07-27 12:48:00,
2013-07-27 08:03:00,50.7,49.0,30.10,NW,319,6.0,10.0,93,0.00,,,0.00,weatherlink.com 1.10,2013-07-27 13:03:00,
2013-07-27 08:18:00,51.9,49.0,30.10,NW,312,4.0,10.0,91,0.00,,,0.00,weatherlink.com 1.10,2013-07-27 13:18:00,
2013-07-27 08:33:00,53.1,50.0,30.10,NNW,340,8.0,11.0,89,0.00,,,0.00,weatherlink.com 1.10,2013-07-27 13:33:00,
2013-07-27 08:48:00,54.1,50.0,30.11,NNW,338,11.0,14.0,85,0.00,,,0.00,weatherlink.com 1.10,2013-07-27 13:48:00,
2013-07-27 09:03:00,54.8,50.0,30.11,NW,325,10.0,13.0,83,0.00,,,0.00,weatherlink.com 1.10,2013-07-27 14:03:00,
2013-07-27 09:18:00,55.1,49.0,30.11,NW,315,10.0,16.0,79,0.00,,,0.00,weatherlink.com 1.10,2013-07-27 14:18:00,
2013-07-27 09:33:00,55.9,49.0,30.11,WNW,293,6.0,18.0,77,0.00,,,0.00,weatherlink.com 1.10,2013-07-27 14:33:00,
2013-07-27 09:48:00,56.2,46.0,30.10,WNW,298,5.0,13.0,69,0.00,,,0.00,weatherlink.com 1.10,2013-07-27 14:48:00,
2013-07-27 10:03:00,57.1,46.0,30.10,NNW,328,8.0,16.0,66,0.00,,,0.00,weatherlink.com 1.10,2013-07-27 15:03:00,
2013-07-27 10:18:00,56.3,45.0,30.10,NNW,331,14.0,18.0,67,0.00,,,0.00,weatherlink.com 1.10,2013-07-27 15:18:00,
2013-07-27 10:33:00,56.2,45.0,30.09,NW,321,9.0,19.0,66,0.00,,,0.00,weatherlink.com 1.10,2013-07-27 15:33:00,
2013-07-27 10:48:00,57.2,45.0,30.09,NNW,338,7.0,14.0,65,0.00,,,0.00,weatherlink.com 1.10,2013-07-27 15:48:00,
2013-07-27 11:03:00,57.5,45.0,30.09,NW,325,11.0,16.0,63,0.00,,,0.00,weatherlink.com 1.10,2013-07-27 16:03:00,
2013-07-27 11:18:00,57.1,45.0,30.09,NW,310,8.0,16.0,64,0.00,,,0.00,weatherlink.com 1.10,2013-07-27 16:18:00,
2013-07-27 11:33:00,57.7,45.0,30.09,NNW,329,10.0,20.0,64,0.00,,,0.00,weatherlink.com 1.10,2013-07-27 16:33:00,
2013-07-27 11:48:00,58.7,44.0,30.08,NW,322,8.0,18.0,58,0.00,,,0.00,weatherlink.com 1.10,2013-07-27 16:48:00,
2013-07-27 12:03:00,59.3,45.0,30.08,NW,323,7.0,16.0,59,0.00,,,0.00,weatherlink.com 1.10,2013-07-27 17:03:00,
2013-07-27 12:18:00,59.4,43.0,30.07,NW,326,7.0,18.0,56,0.00,,,0.00,weatherlink.com 1.10,2013-07-27 17:18:00,
2013-07-27 12:33:00,60.5,45.0,30.07,NW,323,5.0,12.0,56,0.00,,,0.00,weatherlink.com 1.10,2013-07-27 17:33:00,
2013-07-27 12:48:00,61.3,45.0,30.07,NW,317,9.0,13.0,55,0.00,,,0.00,weatherlink.com 1.10,2013-07-27 17:48:00,
2013-07-27 13:03:00,61.3,44.0,30.07,NW,316,13.0,15.0,54,0.00,,,0.00,weatherlink.com 1.10,2013-07-27 18:03:00,
2013-07-27 13:18:00,62.3,44.0,30.07,NNW,346,7.0,14.0,52,0.00,,,0.00,weatherlink.com 1.10,2013-07-27 18:18:00,
2013-07-27 13:33:00,63.8,46.0,30.06,West,278,1.0,10.0,52,0.00,,,0.00,weatherlink.com 1.10,2013-07-27 18:33:00,
2013-07-27 13:48:00,62.7,46.0,30.06,WNW,301,4.0,11.0,54,0.00,,,0.00,weatherlink.com 1.10,2013-07-27 18:48:00,
2013-07-27 14:03:00,63.4,47.0,30.05,NW,307,4.0,14.0,56,0.00,,,0.00,weatherlink.com 1.10,2013-07-27 19:03:00,
2013-07-27 14:18:00,63.8,46.0,30.05,NW,304,6.0,13.0,52,0.00,,,0.00,weatherlink.com 1.10,2013-07-27 19:18:00,
2013-07-27 14:34:00,64.1,45.0,30.04,WNW,288,4.0,16.0,50,0.00,,,0.00,weatherlink.com 1.10,2013-07-27 19:34:00,
2013-07-27 14:49:00,63.2,44.0,30.04,NW,307,3.0,18.0,50,0.00,,,0.00,weatherlink.com 1.10,2013-07-27 19:49:00,
2013-07-27 15:04:00,64.1,45.0,30.04,NNW,335,9.0,15.0,51,0.00,,,0.00,weatherlink.com 1.10,2013-07-27 20:04:00,
2013-07-27 15:19:00,64.6,44.0,30.04,NW,326,4.0,17.0,47,0.00,,,0.00,weatherlink.com 1.10,2013-07-27 20:19:00,
2013-07-27 15:34:00,63.7,45.0,30.04,NW,307,6.0,14.0,50,0.00,,,0.00,weatherlink.com 1.10,2013-07-27 20:34:00,
2013-07-27 15:49:00,65.6,45.0,30.03,NW,314,7.0,14.0,47,0.00,,,0.00,weatherlink.com 1.10,2013-07-27 20:49:00,
2013-07-27 16:04:00,65.3,44.0,30.02,WNW,297,6.0,15.0,47,0.00,,,0.00,weatherlink.com 1.10,2013-07-27 21:04:00,
2013-07-27 16:19:00,65.0,45.0,30.02,NNW,335,6.0,13.0,48,0.00,,,0.00,weatherlink.com 1.10,2013-07-27 21:19:00,
2013-07-27 16:34:00,65.1,44.0,30.02,NNW,328,7.0,13.0,47,0.00,,,0.00,weatherlink.com 1.10,2013-07-27 21:34:00,
2013-07-27 16:49:00,65.5,44.0,30.01,NW,320,7.0,14.0,46,0.00,,,0.00,weatherlink.com 1.10,2013-07-27 21:49:00,
2013-07-27 17:04:00,65.2,44.0,30.01,NW,313,5.0,13.0,47,0.00,,,0.00,weatherlink.com 1.10,2013-07-27 22:04:00,
2013-07-27 17:18:00,65.8,46.0,30.01,WNW,293,4.0,11.0,49,0.00,,,0.00,weatherlink.com 1.10,2013-07-27 22:18:00,
2013-07-27 17:34:00,66.1,45.0,30.01,WNW,289,4.0,13.0,46,0.00,,,0.00,weatherlink.com 1.10,2013-07-27 22:34:00,
2013-07-27 17:49:00,66.5,45.0,30.00,NNW,343,6.0,9.0,47,0.00,,,0.00,weatherlink.com 1.10,2013-07-27 22:49:00,
2013-07-27 18:04:00,67.1,47.0,30.00,WNW,298,3.0,15.0,48,0.00,,,0.00,weatherlink.com 1.10,2013-07-27 23:04:00,
2013-07-27 18:18:00,67.4,45.0,30.00,NW,313,7.0,14.0,45,0.00,,,0.00,weatherlink.com 1.10,2013-07-27 23:18:00,
2013-07-27 18:33:00,65.9,46.0,30.00,NW,307,4.0,13.0,49,0.00,,,0.00,weatherlink.com 1.10,2013-07-27 23:33:00,
2013-07-27 18:49:00,66.3,46.0,30.00,WNW,301,6.0,11.0,48,0.00,,,0.00,weatherlink.com 1.10,2013-07-27 23:49:00,
2013-07-27 19:04:00,67.2,48.0,29.99,NW,321,6.0,11.0,50,0.00,,,0.00,weatherlink.com 1.10,2013-07-28 00:04:00,
2013-07-27 19:19:00,66.2,45.0,29.99,NW,311,6.0,14.0,47,0.00,,,0.00,weatherlink.com 1.10,2013-07-28 00:19:00,
2013-07-27 19:34:00,65.0,46.0,29.99,NW,324,5.0,11.0,50,0.00,,,0.00,weatherlink.com 1.10,2013-07-28 00:34:00,
2013-07-27 19:49:00,64.2,48.0,29.99,NW,322,3.0,7.0,55,0.00,,,0.00,weatherlink.com 1.10,2013-07-28 00:49:00,
2013-07-27 20:04:00,63.1,48.0,29.99,NW,320,2.0,4.0,58,0.00,,,0.00,weatherlink.com 1.10,2013-07-28 01:04:00,
2013-07-27 20:19:00,62.5,48.0,29.99,NW,318,4.0,5.0,59,0.00,,,0.00,weatherlink.com 1.10,2013-07-28 01:19:00,
2013-07-27 20:34:00,62.6,47.0,29.99,NNW,327,4.0,5.0,58,0.00,,,0.00,weatherlink.com 1.10,2013-07-28 01:34:00,
2013-07-27 20:49:00,61.9,49.0,29.99,WNW,301,1.0,2.0,62,0.00,,,0.00,weatherlink.com 1.10,2013-07-28 01:49:00,
2013-07-27 21:04:00,61.6,48.0,29.99,NW,304,2.0,3.0,62,0.00,,,0.00,weatherlink.com 1.10,2013-07-28 02:04:00,
2013-07-27 21:19:00,60.9,49.0,30.00,WNW,303,1.0,2.0,66,0.00,,,0.00,weatherlink.com 1.10,2013-07-28 02:19:00,
2013-07-27 21:34:00,60.5,49.0,29.99,WNW,295,1.0,2.0,67,0.00,,,0.00,weatherlink.com 1.10,2013-07-28 02:34:00,
2013-07-27 21:49:00,60.1,49.0,29.99,NW,305,1.0,2.0,68,0.00,,,0.00,weatherlink.com 1.10,2013-07-28 02:49:00,
2013-07-27 22:04:00,59.3,50.0,29.99,WNW,295,1.0,2.0,71,0.00,,,0.00,weatherlink.com 1.10,2013-07-28 03:04:00,
2013-07-27 22:19:00,59.2,49.0,30.00,West,278,2.0,3.0,69,0.00,,,0.00,weatherlink.com 1.10,2013-07-28 03:19:00,
2013-07-27 22:34:00,58.7,49.0,30.00,West,277,2.0,6.0,71,0.00,,,0.00,weatherlink.com 1.10,2013-07-28 03:34:00,
2013-07-27 22:49:00,58.2,49.0,30.00,WNW,284,3.0,6.0,72,0.00,,,0.00,weatherlink.com 1.10,2013-07-28 03:49:00,
2013-07-27 23:04:00,58.1,49.0,30.00,WNW,295,2.0,5.0,71,0.00,,,0.00,weatherlink.com 1.10,2013-07-28 04:04:00,
2013-07-27 23:19:00,57.7,48.0,30.00,West,265,3.0,5.0,71,0.00,,,0.00,weatherlink.com 1.10,2013-07-28 04:19:00,
2013-07-27 23:34:00,57.6,49.0,29.99,WNW,288,2.0,6.0,72,0.00,,,0.00,weatherlink.com 1.10,2013-07-28 04:34:00,
2013-07-27 23:49:00,57.1,49.0,29.99,WNW,287,3.0,4.0,74,0.00,,,0.00,weatherlink.com 1.10,2013-07-28 04:49:00,